Time;durP1;ratioP1;P1;durP2;ratioP2;P2;SDS_P1;SDS_P2;PMS_P1;PMS_P2;Temp;Humidity;BMP_temperature;BMP_pressure;BME280_temperature;BME280_humidity;BME280_pressure;Samples;Min_cycle;Max_cycle;Signal;HPM_P1;HPM_P2
2023/07/13 00:01:55;;;;;;;5.37;1.83;;;17.70;99.90;;;;;;5011200;28;20233;-84
2023/07/13 00:04:26;;;;;;;4.70;1.77;;;17.70;99.90;;;;;;5009188;28;20651;-85
2023/07/13 00:06:55;;;;;;;5.05;2.45;;;17.60;99.90;;;;;;5006404;28;20206;-84
2023/07/13 00:09:22;;;;;;;6.35;2.20;;;17.60;99.90;;;;;;5006109;28;20198;-83
2023/07/13 00:11:56;;;;;;;5.35;1.90;;;17.60;99.90;;;;;;5011105;28;20294;-84
2023/07/13 00:14:24;;;;;;;4.85;1.75;;;17.60;99.90;;;;;;5007078;28;20239;-84
2023/07/13 00:16:51;;;;;;;6.88;1.90;;;17.60;99.90;;;;;;5004353;28;20544;-84
2023/07/13 00:19:18;;;;;;;7.05;1.70;;;17.60;99.90;;;;;;5010491;28;20309;-83
2023/07/13 00:21:46;;;;;;;5.47;1.92;;;17.60;99.90;;;;;;5005556;28;20240;-86
2023/07/13 00:24:18;;;;;;;5.78;1.98;;;17.50;99.90;;;;;;5009301;28;20210;-85
2023/07/13 00:26:45;;;;;;;5.13;2.13;;;17.50;99.90;;;;;;5009215;28;20223;-83
2023/07/13 00:29:13;;;;;;;5.73;1.87;;;17.40;99.90;;;;;;5004801;28;20238;-83
2023/07/13 00:31:40;;;;;;;5.30;2.00;;;17.40;99.90;;;;;;5006937;28;20318;-84
2023/07/13 00:34:07;;;;;;;9.77;2.35;;;17.30;99.90;;;;;;5013422;28;20198;-86
2023/07/13 00:36:34;;;;;;;10.07;2.20;;;17.30;99.90;;;;;;5031074;28;20715;-84
2023/07/13 00:39:03;;;;;;;7.65;1.90;;;17.30;99.90;;;;;;5007747;28;20249;-85
2023/07/13 00:41:31;;;;;;;5.23;1.80;;;17.30;99.90;;;;;;5008733;28;20223;-83
2023/07/13 00:43:58;;;;;;;4.70;2.00;;;17.30;99.90;;;;;;5006997;28;20218;-84
2023/07/13 00:46:28;;;;;;;4.17;2.10;;;17.30;99.90;;;;;;5004507;28;20206;-84
2023/07/13 00:48:59;;;;;;;3.60;2.00;;;17.30;99.90;;;;;;5006568;28;20668;-84
2023/07/13 00:51:31;;;;;;;9.13;2.25;;;17.20;99.90;;;;;;5017559;28;20588;-82
2023/07/13 00:54:05;;;;;;;7.13;2.40;;;17.10;99.90;;;;;;5007332;28;20305;-84
2023/07/13 00:56:33;;;;;;;4.07;2.37;;;17.10;99.90;;;;;;4996884;28;20215;-85
2023/07/13 00:59:02;;;;;;;4.03;2.17;;;17.10;99.90;;;;;;5004441;28;20745;-84
2023/07/13 01:01:29;;;;;;;4.93;2.60;;;17.00;99.90;;;;;;5007696;28;20205;-83
2023/07/13 01:03:56;;;;;;;6.60;2.13;;;16.90;99.90;;;;;;5000896;28;20672;-84
2023/07/13 01:06:24;;;;;;;9.53;2.30;;;16.90;99.90;;;;;;5006640;28;20213;-83
2023/07/13 01:08:51;;;;;;;7.90;2.50;;;16.90;99.90;;;;;;5003133;28;20234;-86
2023/07/13 01:11:21;;;;;;;6.73;2.27;;;16.90;99.90;;;;;;5006092;28;20219;-83
2023/07/13 01:13:49;;;;;;;4.40;2.27;;;16.80;99.90;;;;;;5002104;28;20302;-83
2023/07/13 01:16:27;;;;;;;6.10;2.00;;;16.80;99.90;;;;;;5002813;28;20249;-84
2023/07/13 01:18:58;;;;;;;6.43;2.30;;;16.80;99.90;;;;;;5008246;28;20212;-84
2023/07/13 01:21:31;;;;;;;4.40;2.20;;;16.80;99.90;;;;;;5009363;28;20211;-83
2023/07/13 01:23:58;;;;;;;8.93;2.40;;;16.70;99.90;;;;;;5018428;28;20207;-84
2023/07/13 01:26:28;;;;;;;4.77;2.40;;;16.70;99.90;;;;;;5005486;28;20222;-83
2023/07/13 01:28:58;;;;;;;5.00;2.17;;;16.70;99.90;;;;;;5008445;28;20199;-83
2023/07/13 01:31:25;;;;;;;5.03;2.17;;;16.70;99.90;;;;;;5003662;28;20210;-85
2023/07/13 01:33:54;;;;;;;5.93;2.10;;;16.70;99.90;;;;;;5001893;28;20222;-83
2023/07/13 01:36:23;;;;;;;4.50;2.83;;;16.70;99.90;;;;;;5004147;28;20218;-84
2023/07/13 01:38:50;;;;;;;8.30;2.80;;;16.70;99.90;;;;;;5011557;28;20234;-81
2023/07/13 01:41:17;;;;;;;5.10;2.47;;;16.70;99.90;;;;;;5012385;28;20207;-82
2023/07/13 01:43:46;;;;;;;2.77;2.00;;;16.70;99.90;;;;;;5019459;28;20256;-82
2023/07/13 01:46:13;;;;;;;7.20;2.07;;;16.70;99.90;;;;;;5010638;28;20218;-84
2023/07/13 01:48:49;;;;;;;6.43;2.00;;;16.70;99.90;;;;;;5021307;28;20269;-84
2023/07/13 01:51:18;;;;;;;5.07;2.10;;;16.70;99.90;;;;;;5024037;28;20678;-85
2023/07/13 01:53:45;;;;;;;3.47;2.07;;;16.70;99.90;;;;;;5007316;28;20244;-83
2023/07/13 01:56:12;;;;;;;5.13;1.80;;;16.60;99.90;;;;;;5017781;28;20207;-83
2023/07/13 01:58:39;;;;;;;3.10;1.97;;;16.60;99.90;;;;;;5025982;28;20276;-83
2023/07/13 02:01:06;;;;;;;6.03;2.13;;;16.60;99.90;;;;;;5020037;28;20611;-83
2023/07/13 02:03:33;;;;;;;6.80;2.40;;;16.60;99.90;;;;;;5010440;28;20222;-84
2023/07/13 02:06:00;;;;;;;6.03;2.07;;;16.50;99.90;;;;;;5004822;28;20451;-84
2023/07/13 02:08:27;;;;;;;6.90;2.37;;;16.60;99.90;;;;;;5023256;28;20238;-83
2023/07/13 02:10:54;;;;;;;4.17;2.07;;;16.50;99.90;;;;;;5007116;28;20202;-83
2023/07/13 02:13:21;;;;;;;10.10;2.57;;;16.50;99.90;;;;;;5004999;28;20230;-84
2023/07/13 02:15:51;;;;;;;5.43;2.20;;;16.50;99.90;;;;;;5011825;28;20197;-85
2023/07/13 02:18:21;;;;;;;5.70;2.60;;;16.40;99.90;;;;;;5009109;28;20298;-85
2023/07/13 02:20:48;;;;;;;4.23;2.30;;;16.40;99.90;;;;;;5020734;28;20203;-85
2023/07/13 02:23:15;;;;;;;4.80;2.03;;;16.30;99.90;;;;;;5009356;28;20234;-83
2023/07/13 02:25:42;;;;;;;4.13;2.00;;;16.30;99.90;;;;;;5025096;28;20650;-85
2023/07/13 02:28:11;;;;;;;2.30;1.80;;;16.30;99.90;;;;;;5013621;28;20311;-84
2023/07/13 02:30:38;;;;;;;7.20;2.30;;;16.30;99.90;;;;;;5021716;28;20601;-84
2023/07/13 02:33:05;;;;;;;4.93;1.90;;;16.30;99.90;;;;;;5012523;28;20717;-85
2023/07/13 02:35:32;;;;;;;6.10;2.23;;;16.20;99.90;;;;;;5023724;28;20206;-83
2023/07/13 02:37:59;;;;;;;6.33;2.30;;;16.20;99.90;;;;;;5024873;28;20230;-85
2023/07/13 02:40:26;;;;;;;6.27;2.63;;;16.20;99.90;;;;;;5022107;28;20209;-85
2023/07/13 02:42:53;;;;;;;8.17;3.23;;;16.10;99.90;;;;;;5019347;28;20333;-84
2023/07/13 02:45:20;;;;;;;6.23;2.30;;;16.10;99.90;;;;;;5013148;28;20214;-84
2023/07/13 02:47:47;;;;;;;5.20;1.90;;;16.10;99.90;;;;;;5006058;28;20237;-83
2023/07/13 02:50:14;;;;;;;7.47;2.07;;;16.00;99.90;;;;;;5030265;28;20207;-83
2023/07/13 02:52:43;;;;;;;7.60;2.20;;;16.00;99.90;;;;;;5006049;28;20246;-84
2023/07/13 02:55:10;;;;;;;4.50;1.77;;;16.00;99.90;;;;;;5027925;28;20202;-84
2023/07/13 02:57:37;;;;;;;2.97;2.20;;;15.90;99.90;;;;;;5027411;28;20240;-83
2023/07/13 03:00:07;;;;;;;7.40;2.17;;;15.90;99.90;;;;;;5012442;28;20205;-85
2023/07/13 03:02:35;;;;;;;9.33;2.83;;;15.90;99.90;;;;;;5033280;28;20209;-84
2023/07/13 03:05:02;;;;;;;7.63;2.80;;;15.90;99.90;;;;;;5035410;28;20217;-85
2023/07/13 03:07:31;;;;;;;5.60;2.30;;;15.80;99.90;;;;;;5021352;28;20213;-83
2023/07/13 03:09:59;;;;;;;5.20;2.07;;;15.80;99.90;;;;;;5015388;28;20272;-84
2023/07/13 03:12:26;;;;;;;6.27;2.20;;;15.80;99.90;;;;;;5023069;28;20232;-84
2023/07/13 03:14:53;;;;;;;6.83;2.40;;;15.80;99.90;;;;;;5013959;28;20250;-86
2023/07/13 03:17:20;;;;;;;8.50;2.53;;;15.80;99.90;;;;;;5005072;28;20210;-85
2023/07/13 03:19:50;;;;;;;4.83;2.83;;;15.80;99.90;;;;;;5020170;28;20226;-83
2023/07/13 03:22:18;;;;;;;9.30;2.73;;;15.70;99.90;;;;;;5024663;28;20234;-83
2023/07/13 03:24:45;;;;;;;5.97;2.90;;;15.70;99.90;;;;;;5020859;28;20194;-84
2023/07/13 03:27:13;;;;;;;6.53;2.27;;;15.70;99.90;;;;;;5013077;28;20708;-85
2023/07/13 03:29:40;;;;;;;7.13;2.53;;;15.70;99.90;;;;;;5025717;28;20293;-85
2023/07/13 03:32:07;;;;;;;5.80;2.77;;;15.70;99.90;;;;;;5009522;28;20215;-84
2023/07/13 03:34:34;;;;;;;5.73;2.40;;;15.70;99.90;;;;;;5016078;28;20725;-84
2023/07/13 03:37:01;;;;;;;7.93;3.10;;;15.60;99.90;;;;;;5028132;28;20225;-83
2023/07/13 03:39:28;;;;;;;5.90;2.90;;;15.60;99.90;;;;;;5027617;28;20312;-84
2023/07/13 03:41:55;;;;;;;6.30;2.80;;;15.60;99.90;;;;;;5010625;28;20222;-85
2023/07/13 03:44:22;;;;;;;8.57;2.70;;;15.60;99.90;;;;;;5016548;28;20209;-84
2023/07/13 03:46:49;;;;;;;6.40;2.93;;;15.70;99.90;;;;;;5021580;28;20225;-85
2023/07/13 03:49:16;;;;;;;10.53;2.83;;;15.60;99.90;;;;;;5028459;28;20211;-84
2023/07/13 03:51:43;;;;;;;9.10;2.70;;;15.60;99.90;;;;;;5012366;28;20210;-84
2023/07/13 03:54:10;;;;;;;10.20;2.97;;;15.60;99.90;;;;;;5043969;28;20714;-83
2023/07/13 03:56:37;;;;;;;7.17;3.17;;;15.50;99.90;;;;;;5040075;28;20218;-84
2023/07/13 03:59:04;;;;;;;5.67;2.80;;;15.50;99.90;;;;;;5042964;28;20220;-84
2023/07/13 04:01:31;;;;;;;7.97;3.13;;;15.60;99.90;;;;;;5028168;28;20209;-82
2023/07/13 04:03:58;;;;;;;9.70;2.90;;;15.60;99.90;;;;;;5013355;28;20206;-85
2023/07/13 04:06:30;;;;;;;9.13;3.23;;;15.50;99.90;;;;;;5027866;28;20233;-86
2023/07/13 04:09:03;;;;;;;5.53;2.63;;;15.50;99.90;;;;;;5010820;28;20201;-82
2023/07/13 04:11:31;;;;;;;8.37;2.83;;;15.50;99.90;;;;;;5026696;28;20232;-84
2023/07/13 04:14:04;;;;;;;6.50;2.70;;;15.60;99.90;;;;;;5005358;28;20693;-83
2023/07/13 04:16:32;;;;;;;9.07;3.00;;;15.60;99.90;;;;;;5014640;28;20206;-85
2023/07/13 04:18:59;;;;;;;9.63;4.10;;;15.60;99.90;;;;;;5013769;28;20208;-83
2023/07/13 04:21:29;;;;;;;11.57;3.03;;;15.60;99.90;;;;;;5013055;28;20460;-84
2023/07/13 04:23:56;;;;;;;6.77;2.83;;;15.60;99.90;;;;;;5012045;28;20315;-83
2023/07/13 04:26:26;;;;;;;8.83;3.00;;;15.60;99.90;;;;;;5012203;28;20241;-83
2023/07/13 04:28:53;;;;;;;7.23;3.77;;;15.60;99.90;;;;;;5013899;28;20678;-84
2023/07/13 04:31:21;;;;;;;5.77;2.93;;;15.60;99.90;;;;;;5011645;28;20213;-82
2023/07/13 04:33:49;;;;;;;8.10;3.20;;;15.70;99.90;;;;;;5007431;28;20233;-83
2023/07/13 04:36:17;;;;;;;7.57;3.07;;;15.70;99.90;;;;;;5012850;28;20229;-81
2023/07/13 04:38:43;;;;;;;5.50;2.90;;;15.70;99.90;;;;;;4994658;28;20222;-84
2023/07/13 04:41:12;;;;;;;6.97;3.10;;;15.80;99.90;;;;;;5012488;28;20210;-83
2023/07/13 04:43:39;;;;;;;7.33;3.17;;;15.80;99.90;;;;;;5006300;28;20207;-83
2023/07/13 04:46:07;;;;;;;10.07;3.63;;;15.80;99.90;;;;;;5010961;28;20219;-84
2023/07/13 04:48:35;;;;;;;9.03;3.57;;;15.80;99.90;;;;;;4993580;28;20264;-81
2023/07/13 04:51:03;;;;;;;10.63;3.67;;;15.80;99.90;;;;;;4993485;28;20244;-83
2023/07/13 04:53:30;;;;;;;7.30;3.17;;;15.80;99.90;;;;;;5009905;28;20229;-83
2023/07/13 04:55:58;;;;;;;6.47;3.40;;;15.90;99.90;;;;;;5012651;28;20656;-84
2023/07/13 04:58:25;;;;;;;10.63;3.70;;;15.80;99.90;;;;;;5000193;28;20582;-86
2023/07/13 05:00:52;;;;;;;7.63;3.40;;;15.90;99.90;;;;;;4980035;28;20215;-82
2023/07/13 05:03:19;;;;;;;7.67;3.50;;;15.90;99.90;;;;;;4992329;28;20320;-81
2023/07/13 05:05:58;;;;;;;6.90;3.77;;;15.90;99.90;;;;;;4987546;28;20605;-82
2023/07/13 05:08:25;;;;;;;9.50;3.83;;;16.00;99.90;;;;;;5011929;28;20217;-84
2023/07/13 05:10:53;;;;;;;11.43;4.30;;;15.90;99.90;;;;;;5016392;28;20217;-84
2023/07/13 05:13:20;;;;;;;7.50;4.07;;;16.20;99.90;;;;;;5016530;28;20343;-83
2023/07/13 05:16:01;;;;;;;11.23;3.90;;;16.10;99.90;;;;;;4996966;28;20202;-85
2023/07/13 05:18:29;;;;;;;11.90;4.03;;;16.20;99.90;;;;;;5012568;28;20289;-85
2023/07/13 05:21:06;;;;;;;14.10;4.13;;;16.30;99.90;;;;;;5013450;28;20249;-84
2023/07/13 05:23:34;;;;;;;12.73;4.13;;;16.40;99.90;;;;;;5014691;28;20305;-84
2023/07/13 05:26:03;;;;;;;10.57;5.27;;;16.50;99.90;;;;;;4998517;28;20191;-85
2023/07/13 05:28:34;;;;;;;9.47;4.13;;;16.50;99.90;;;;;;4999687;28;20199;-86
2023/07/13 05:31:01;;;;;;;13.85;4.50;;;16.60;99.90;;;;;;5031776;28;20197;-83
2023/07/13 05:33:28;;;;;;;6.95;3.60;;;16.80;99.90;;;;;;5013049;28;20210;-81
2023/07/13 05:35:55;;;;;;;14.60;5.15;;;17.00;99.90;;;;;;5030189;28;20207;-84
2023/07/13 05:38:22;;;;;;;9.60;5.18;;;17.40;99.90;;;;;;5037695;28;20224;-83
2023/07/13 05:40:50;;;;;;;14.68;5.68;;;17.50;99.90;;;;;;5046877;28;20280;-85
2023/07/13 05:43:20;;;;;;;8.80;4.70;;;17.70;99.90;;;;;;5027171;28;20237;-84
2023/07/13 05:45:47;;;;;;;10.07;5.18;;;18.20;99.90;;;;;;5026729;28;20201;-84
2023/07/13 05:48:14;;;;;;;13.52;5.40;;;18.50;99.90;;;;;;5029936;28;20198;-88
2023/07/13 05:50:41;;;;;;;11.18;5.05;;;19.00;99.90;;;;;;5025319;28;20569;-83
2023/07/13 05:53:07;;;;;;;11.35;5.13;;;20.10;99.90;;;;;;5025383;28;20248;-84
2023/07/13 05:55:35;;;;;;;13.80;5.90;;;20.30;99.90;;;;;;5010684;28;20739;-84
2023/07/13 05:58:02;;;;;;;11.70;5.25;;;20.60;99.90;;;;;;5008591;28;20255;-84
2023/07/13 06:00:28;;;;;;;15.75;4.85;;;21.00;99.90;;;;;;5004165;28;20210;-84
2023/07/13 06:02:58;;;;;;;15.93;5.75;;;21.20;99.90;;;;;;5006598;28;20216;-83
2023/07/13 06:05:25;;;;;;;10.45;5.65;;;21.20;99.90;;;;;;5021807;28;20213;-83
2023/07/13 06:07:52;;;;;;;11.32;5.45;;;21.20;99.90;;;;;;5007478;28;20259;-83
2023/07/13 06:10:19;;;;;;;11.32;5.40;;;21.30;99.90;;;;;;5024897;28;20264;-83
2023/07/13 06:12:46;;;;;;;10.60;4.97;;;21.40;99.90;;;;;;5007270;28;20226;-84
2023/07/13 06:15:15;;;;;;;11.82;5.18;;;22.00;99.90;;;;;;5006684;28;20264;-82
2023/07/13 06:17:45;;;;;;;16.13;5.72;;;21.80;99.90;;;;;;5007749;28;20663;-82
2023/07/13 06:20:11;;;;;;;11.13;5.20;;;22.10;99.90;;;;;;5010088;28;20220;-83
2023/07/13 06:22:39;;;;;;;12.38;5.35;;;22.10;99.90;;;;;;5025866;28;20210;-83
2023/07/13 06:25:06;;;;;;;11.63;5.47;;;22.30;99.90;;;;;;5026777;28;20231;-83
2023/07/13 06:27:33;;;;;;;12.40;5.70;;;22.40;99.90;;;;;;5027323;28;20663;-84
2023/07/13 06:30:00;;;;;;;11.13;5.10;;;22.80;99.90;;;;;;5010980;28;20210;-84
2023/07/13 06:32:28;;;;;;;9.65;5.43;;;23.10;99.90;;;;;;5023025;28;20658;-83
2023/07/13 06:34:55;;;;;;;11.63;6.40;;;23.40;99.90;;;;;;5011295;28;20221;-83
2023/07/13 06:37:22;;;;;;;17.75;5.28;;;23.50;99.90;;;;;;5007982;28;20615;-85
2023/07/13 06:39:49;;;;;;;13.77;5.82;;;23.60;99.90;;;;;;5020451;28;20237;-82
2023/07/13 06:42:17;;;;;;;13.02;5.78;;;23.90;99.90;;;;;;5022263;28;20254;-82
2023/07/13 06:44:44;;;;;;;11.43;5.88;;;23.90;99.90;;;;;;5010660;28;20220;-83
2023/07/13 06:47:11;;;;;;;17.05;7.07;;;24.10;99.90;;;;;;5016320;28;21080;-81
2023/07/13 06:49:38;;;;;;;9.60;5.22;;;24.50;99.90;;;;;;5020273;28;20268;-81
2023/07/13 06:52:05;;;;;;;11.40;6.03;;;24.20;99.90;;;;;;5002363;28;20214;-83
2023/07/13 06:54:32;;;;;;;11.27;5.70;;;23.80;99.90;;;;;;5004380;28;20230;-82
2023/07/13 06:56:59;;;;;;;10.15;5.25;;;23.80;99.90;;;;;;5025962;28;20630;-84
2023/07/13 06:59:25;;;;;;;10.95;5.95;;;23.90;99.90;;;;;;5011533;28;20209;-84
2023/07/13 07:01:52;;;;;;;10.90;5.80;;;24.00;99.90;;;;;;5010750;28;20321;-82
2023/07/13 07:04:19;;;;;;;11.15;6.10;;;24.40;99.90;;;;;;5001437;28;20214;-84
2023/07/13 07:06:47;;;;;;;10.90;5.78;;;24.10;99.90;;;;;;5016151;28;20212;-84
2023/07/13 07:09:16;;;;;;;10.93;5.82;;;23.90;99.90;;;;;;5001429;28;20217;-84
2023/07/13 07:11:43;;;;;;;12.90;5.82;;;23.90;99.90;;;;;;5015255;28;20222;-85
2023/07/13 07:14:28;;;;;;;10.98;5.75;;;24.00;99.90;;;;;;5011615;28;20244;-83
2023/07/13 07:16:55;;;;;;;10.00;6.10;;;23.70;99.90;;;;;;5023159;28;20712;-85
2023/07/13 07:19:22;;;;;;;11.38;6.60;;;23.70;99.90;;;;;;4998037;28;20215;-84
2023/07/13 07:21:49;;;;;;;12.80;5.78;;;23.80;99.90;;;;;;5008838;28;20570;-83
2023/07/13 07:24:16;;;;;;;11.05;5.70;;;24.10;99.90;;;;;;5023090;28;20697;-83
2023/07/13 07:26:42;;;;;;;10.95;5.30;;;24.60;99.90;;;;;;5008103;28;20222;-83
2023/07/13 07:29:13;;;;;;;10.40;5.50;;;;;;;;;;5008829;28;20209;-84
2023/07/13 07:31:42;;;;;;;10.50;5.90;;;25.30;99.90;;;;;;5028475;28;20264;-81
2023/07/13 07:34:12;;;;;;;8.90;5.20;;;25.30;99.90;;;;;;5011505;28;20236;-84
2023/07/13 07:36:39;;;;;;;10.18;5.72;;;25.40;99.90;;;;;;5024239;28;20272;-80
2023/07/13 07:39:09;;;;;;;7.78;6.00;;;25.50;99.90;;;;;;5024745;28;20242;-83
2023/07/13 07:41:36;;;;;;;10.50;5.03;;;25.60;99.90;;;;;;5025192;28;20241;-82
2023/07/13 07:44:07;;;;;;;11.98;5.82;;;25.60;99.90;;;;;;5024884;28;20210;-83
2023/07/13 07:46:34;;;;;;;13.55;6.00;;;25.30;99.90;;;;;;5021455;28;20213;-82
2023/07/13 07:49:01;;;;;;;9.88;5.70;;;25.30;99.90;;;;;;5011567;28;20207;-82
2023/07/13 07:51:28;;;;;;;11.57;6.32;;;25.40;99.90;;;;;;5025145;28;20289;-84
2023/07/13 07:53:55;;;;;;;11.77;6.32;;;25.60;99.90;;;;;;5023434;28;20320;-83
2023/07/13 07:56:22;;;;;;;9.13;5.07;;;26.00;99.90;;;;;;5024101;28;20226;-83
2023/07/13 07:58:52;;;;;;;12.25;6.10;;;26.20;99.90;;;;;;5004207;28;20218;-84
2023/07/13 08:01:22;;;;;;;9.52;5.20;;;26.30;99.90;;;;;;5025725;28;20562;-82
2023/07/13 08:03:52;;;;;;;10.60;5.65;;;26.00;99.90;;;;;;5014889;28;20213;-84
2023/07/13 08:06:22;;;;;;;12.35;5.90;;;25.40;99.90;;;;;;5018381;28;20606;-84
2023/07/13 08:08:52;;;;;;;14.15;6.05;;;24.80;99.90;;;;;;5025922;28;20705;-83
2023/07/13 08:11:21;;;;;;;9.50;4.90;;;24.70;99.90;;;;;;5004705;28;20348;-83
2023/07/13 08:13:51;;;;;;;10.05;5.90;;;24.90;99.90;;;;;;5024998;28;20232;-83
2023/07/13 08:16:24;;;;;;;8.68;5.80;;;25.20;99.90;;;;;;5003797;28;20213;-84
2023/07/13 08:18:51;;;;;;;11.57;6.00;;;25.40;99.90;;;;;;5021433;28;20210;-80
2023/07/13 08:21:19;;;;;;;12.13;6.80;;;25.20;99.90;;;;;;5008202;28;20260;-84
2023/07/13 08:23:46;;;;;;;12.55;6.03;;;24.70;99.90;;;;;;5022351;28;20623;-84
2023/07/13 08:26:14;;;;;;;10.40;6.07;;;24.40;99.90;;;;;;5025511;28;20216;-82
2023/07/13 08:28:41;;;;;;;10.00;6.20;;;23.70;99.90;;;;;;5011894;28;20203;-84
2023/07/13 08:31:09;;;;;;;12.40;6.88;;;23.50;99.90;;;;;;5014820;28;20252;-83
2023/07/13 08:33:36;;;;;;;12.13;6.88;;;23.20;99.90;;;;;;5013907;28;20645;-84
2023/07/13 08:36:05;;;;;;;14.73;7.25;;;23.00;99.90;;;;;;5028043;28;20273;-83
2023/07/13 08:38:32;;;;;;;11.00;7.13;;;22.80;99.90;;;;;;5022676;28;20237;-83
2023/07/13 08:41:00;;;;;;;13.23;7.07;;;22.50;99.90;;;;;;5024969;28;20206;-84
2023/07/13 08:43:31;;;;;;;13.25;7.25;;;22.40;99.90;;;;;;5042166;28;20228;-84
2023/07/13 08:46:18;;;;;;;11.15;6.35;;;22.30;99.90;;;;;;5022944;28;20209;-84
2023/07/13 08:48:58;;;;;;;10.80;6.38;;;22.60;99.90;;;;;;5008404;28;20213;-84
2023/07/13 08:51:31;;;;;;;11.45;6.03;;;23.20;99.90;;;;;;5026558;28;20213;-84
2023/07/13 08:54:02;;;;;;;10.98;5.70;;;23.60;99.90;;;;;;5028099;28;20357;-83
2023/07/13 08:56:31;;;;;;;9.98;6.00;;;23.90;99.90;;;;;;5026255;28;20221;-84
2023/07/13 08:59:06;;;;;;;11.40;6.38;;;24.10;99.90;;;;;;5028720;28;20232;-84
2023/07/13 09:02:15;;;;;;;9.65;5.20;;;24.20;99.90;;;;;;5022990;28;20214;-85
2023/07/13 09:04:54;;;;;;;10.45;5.90;;;24.50;99.90;;;;;;5033350;28;20216;-83
2023/07/13 09:07:48;;;;;;;11.63;5.40;;;24.90;99.90;;;;;;5025471;28;20205;-83
2023/07/13 09:10:20;;;;;;;7.75;4.68;;;24.80;99.90;;;;;;5022901;28;20280;-84
2023/07/13 09:13:05;;;;;;;8.70;4.00;;;24.70;99.90;;;;;;5024695;28;20226;-84
2023/07/13 09:15:45;;;;;;;7.95;5.10;;;24.80;99.90;;;;;;5038836;28;20236;-83
2023/07/13 09:18:26;;;;;;;9.50;5.03;;;24.90;99.90;;;;;;5041834;28;20243;-83
2023/07/13 09:21:02;;;;;;;8.30;4.10;;;25.10;99.90;;;;;;5018626;28;20698;-86
2023/07/13 09:23:30;;;;;;;10.65;4.18;;;25.20;99.90;;;;;;5025085;28;20212;-82
2023/07/13 09:26:15;;;;;;;8.45;4.50;;;25.10;99.90;;;;;;5026446;28;20510;-85
2023/07/13 09:28:44;;;;;;;8.13;4.00;;;24.50;99.90;;;;;;5009880;28;20264;-83
2023/07/13 09:31:19;;;;;;;9.77;4.38;;;24.10;99.90;;;;;;5030372;28;20202;-85
2023/07/13 09:33:46;;;;;;;7.80;4.20;;;23.90;99.90;;;;;;5010911;28;20218;-84
2023/07/13 09:36:25;;;;;;;7.30;4.60;;;23.80;99.90;;;;;;5015993;28;20214;-84
2023/07/13 09:39:18;;;;;;;9.10;4.63;;;23.90;99.90;;;;;;5018961;28;20357;-84
2023/07/13 09:42:01;;;;;;;7.05;4.70;;;23.70;99.90;;;;;;4999901;28;20222;-84
2023/07/13 09:44:33;;;;;;;12.70;5.70;;;23.40;99.90;;;;;;5004334;28;20612;-79
2023/07/13 09:47:00;;;;;;;13.63;5.30;;;23.20;99.90;;;;;;5007149;28;20222;-80
2023/07/13 09:49:35;;;;;;;10.88;5.75;;;22.80;99.90;;;;;;5002898;28;20218;-83
2023/07/13 09:52:10;;;;;;;11.88;5.82;;;22.50;99.90;;;;;;5006921;28;20230;-82
2023/07/13 09:54:37;;;;;;;9.18;5.22;;;22.00;99.90;;;;;;5005793;28;20346;-81
2023/07/13 09:57:13;;;;;;;11.02;4.50;;;21.50;99.90;;;;;;5008474;28;20292;-81
2023/07/13 09:59:46;;;;;;;6.70;3.83;;;21.40;99.90;;;;;;5000934;28;20211;-81
2023/07/13 10:02:35;;;;;;;8.05;3.30;;;21.30;99.90;;;;;;5001827;28;20213;-81
2023/07/13 10:05:07;;;;;;;4.65;3.17;;;21.20;99.90;;;;;;4999161;28;20666;-81
2023/07/13 10:07:39;;;;;;;5.72;2.72;;;21.80;99.90;;;;;;5006744;28;20717;-82
2023/07/13 10:10:19;;;;;;;7.13;2.50;;;22.30;99.90;;;;;;5000584;28;20213;-84
2023/07/13 10:12:47;;;;;;;2.90;2.17;;;22.60;99.90;;;;;;5009284;28;20260;-83
2023/07/13 10:15:18;;;;;;;5.53;2.63;;;22.60;99.90;;;;;;5006606;28;20252;-84
2023/07/13 10:17:57;;;;;;;2.45;2.10;;;23.10;99.90;;;;;;5004181;28;20226;-82
2023/07/13 10:20:26;;;;;;;7.05;2.60;;;23.20;99.90;;;;;;5003770;28;20210;-84
2023/07/13 10:23:02;;;;;;;4.30;2.28;;;;;;;;;;5003528;28;20717;-84
2023/07/13 10:25:36;;;;;;;5.15;2.70;;;23.50;99.90;;;;;;5001931;28;20371;-82
2023/07/13 10:28:26;;;;;;;3.33;2.55;;;23.80;99.90;;;;;;5004292;28;20247;-83
2023/07/13 10:30:58;;;;;;;3.92;2.53;;;23.80;99.90;;;;;;4996441;28;20202;-83
2023/07/13 10:33:26;;;;;;;4.72;2.72;;;24.00;99.90;;;;;;5002398;28;20215;-83
2023/07/13 10:36:05;;;;;;;6.53;2.88;;;24.00;99.90;;;;;;5000447;28;20305;-84
2023/07/13 10:38:33;;;;;;;3.75;2.40;;;24.10;99.90;;;;;;5005913;28;20694;-82
2023/07/13 10:41:06;;;;;;;3.38;2.50;;;24.40;99.90;;;;;;5015242;28;20447;-83
2023/07/13 10:43:41;;;;;;;6.60;2.85;;;24.60;99.90;;;;;;5011199;28;20575;-84
2023/07/13 10:46:12;;;;;;;4.07;2.50;;;24.40;99.90;;;;;;5005971;28;20209;-83
2023/07/13 10:48:42;;;;;;;7.47;3.40;;;24.20;99.90;;;;;;5007016;28;20217;-77
2023/07/13 10:51:11;;;;;;;4.20;2.20;;;23.80;99.90;;;;;;5020875;28;20287;-78
2023/07/13 10:53:42;;;;;;;5.13;1.98;;;23.20;99.90;;;;;;5023290;28;20290;-79
2023/07/13 10:56:29;;;;;;;3.00;2.10;;;22.50;99.90;;;;;;5018915;28;20264;-81
2023/07/13 10:59:25;;;;;;;4.15;2.22;;;22.10;99.90;;;;;;5006986;28;20212;-81
2023/07/13 11:01:57;;;;;;;4.93;2.45;;;21.80;99.90;;;;;;5000659;28;20225;-81
2023/07/13 11:04:27;;;;;;;4.18;2.20;;;21.80;99.90;;;;;;5020172;28;20209;-80
2023/07/13 11:06:59;;;;;;;3.25;1.75;;;21.80;99.90;;;;;;5019917;28;20206;-80
2023/07/13 11:09:39;;;;;;;3.70;2.20;;;22.00;99.90;;;;;;5021185;28;20341;-81
2023/07/13 11:12:09;;;;;;;2.85;1.90;;;22.10;99.90;;;;;;5020458;28;20225;-81
2023/07/13 11:14:42;;;;;;;3.25;1.83;;;22.10;99.90;;;;;;5022790;28;20226;-82
2023/07/13 11:17:27;;;;;;;2.58;1.75;;;22.20;99.90;;;;;;5022180;28;20214;-82
2023/07/13 11:20:11;;;;;;;5.53;2.50;;;22.40;99.90;;;;;;5003989;28;20304;-80
2023/07/13 11:22:47;;;;;;;2.33;1.67;;;22.60;99.90;;;;;;5019443;28;20217;-83
2023/07/13 11:25:27;;;;;;;2.40;2.03;;;22.80;99.90;;;;;;5017463;28;20217;-83
2023/07/13 11:28:12;;;;;;;3.75;2.58;;;22.90;99.90;;;;;;5017364;28;20245;-80
2023/07/13 11:30:57;;;;;;;5.72;2.63;;;23.00;99.90;;;;;;5022056;28;20284;-83
2023/07/13 11:33:47;;;;;;;4.82;2.92;;;23.40;99.90;;;;;;5020225;28;20205;-81
2023/07/13 11:36:20;;;;;;;3.67;2.47;;;23.60;99.90;;;;;;5021306;28;20237;-81
2023/07/13 11:39:19;;;;;;;4.65;2.72;;;23.90;99.90;;;;;;4999563;28;20509;-83
2023/07/13 11:41:51;;;;;;;4.47;2.20;;;23.80;99.90;;;;;;4999087;28;20223;-83
2023/07/13 11:44:21;;;;;;;7.00;2.58;;;23.60;99.90;;;;;;5004839;28;20297;-82
2023/07/13 11:47:00;;;;;;;5.65;2.67;;;23.50;99.90;;;;;;5005475;28;20207;-81
2023/07/13 11:49:30;;;;;;;5.32;2.80;;;23.40;99.90;;;;;;5001884;28;20210;-80
2023/07/13 11:52:00;;;;;;;5.53;2.55;;;23.50;99.90;;;;;;5002878;28;20203;-82
2023/07/13 11:54:33;;;;;;;3.95;2.42;;;23.90;99.90;;;;;;5007907;28;20294;-81
2023/07/13 11:57:06;;;;;;;6.15;2.40;;;24.20;99.90;;;;;;5005575;28;20218;-83
2023/07/13 11:59:39;;;;;;;2.88;2.17;;;24.10;99.90;;;;;;5009050;28;20206;-84
2023/07/13 12:02:26;;;;;;;4.03;2.10;;;24.30;99.90;;;;;;5009834;28;20222;-83
2023/07/13 12:04:54;;;;;;;4.20;2.42;;;24.50;99.90;;;;;;5020563;28;20602;-86
2023/07/13 12:07:30;;;;;;;4.68;2.45;;;24.50;99.90;;;;;;5005260;28;20219;-82
2023/07/13 12:10:47;;;;;;;3.83;2.05;;;24.50;99.90;;;;;;5007114;28;20237;-85
2023/07/13 12:13:44;;;;;;;3.20;1.90;;;24.40;99.90;;;;;;4990417;28;20225;-87
2023/07/13 12:16:32;;;;;;;3.00;1.88;;;24.60;99.90;;;;;;5005267;28;20245;-85
2023/07/13 12:19:01;;;;;;;5.93;2.03;;;24.90;99.90;;;;;;5017104;28;20210;-83
2023/07/13 12:21:37;;;;;;;4.45;2.00;;;25.00;99.90;;;;;;5028365;28;20217;-85
2023/07/13 12:24:18;;;;;;;3.67;2.13;;;25.00;99.90;;;;;;5024405;28;20551;-84
2023/07/13 12:26:51;;;;;;;4.88;2.03;;;25.30;99.90;;;;;;5019686;28;20211;-84
2023/07/13 12:29:33;;;;;;;4.50;1.95;;;25.10;99.90;;;;;;5019912;28;20289;-86
2023/07/13 12:32:00;;;;;;;2.83;2.15;;;24.80;99.90;;;;;;5012222;28;20378;-84
2023/07/13 12:34:27;;;;;;;4.55;1.88;;;24.70;99.90;;;;;;5010321;28;20301;-85
2023/07/13 12:37:34;;;;;;;5.00;1.92;;;24.60;99.90;;;;;;5006601;28;20207;-85
2023/07/13 12:40:09;;;;;;;5.68;2.20;;;24.30;99.90;;;;;;5003184;28;20591;-83
2023/07/13 12:43:02;;;;;;;3.65;2.08;;;24.10;99.90;;;;;;5005565;28;20221;-85
2023/07/13 12:45:32;;;;;;;3.78;1.88;;;23.90;99.90;;;;;;4999304;28;20206;-85
2023/07/13 12:48:09;;;;;;;6.47;2.30;;;23.60;99.90;;;;;;5010693;28;20202;-87
2023/07/13 12:50:41;;;;;;;2.67;2.05;;;23.70;99.90;;;;;;5002949;28;20222;-88
2023/07/13 12:53:21;;;;;;;5.93;2.25;;;23.70;99.90;;;;;;4997934;28;20547;-85
2023/07/13 12:55:50;;;;;;;5.90;2.35;;;23.70;99.90;;;;;;5007492;28;20231;-84
2023/07/13 12:58:29;;;;;;;4.68;2.33;;;23.50;99.90;;;;;;5001727;28;20223;-85
2023/07/13 13:01:02;;;;;;;5.00;2.38;;;23.50;99.90;;;;;;5001270;28;20202;-85
2023/07/13 13:04:00;;;;;;;5.43;2.30;;;23.50;99.90;;;;;;5005547;28;20234;-85
2023/07/13 13:06:30;;;;;;;5.68;2.50;;;23.50;99.90;;;;;;4996642;28;20621;-88